sensor_id;sensor_type;location;lat;lon;timestamp;temperature;humidity
1800;DHT22;919;48.274;12.292;2022-08-19T00:00:30;19.40;99.90
1800;DHT22;919;48.274;12.292;2022-08-19T00:02:57;19.40;99.90
1800;DHT22;919;48.274;12.292;2022-08-19T00:05:24;19.40;99.90
1800;DHT22;919;48.274;12.292;2022-08-19T00:07:51;19.40;99.90
1800;DHT22;919;48.274;12.292;2022-08-19T00:10:20;19.40;99.90
1800;DHT22;919;48.274;12.292;2022-08-19T00:12:47;19.50;99.90
1800;DHT22;919;48.274;12.292;2022-08-19T00:15:16;19.40;99.90
1800;DHT22;919;48.274;12.292;2022-08-19T00:17:46;19.40;99.90
1800;DHT22;919;48.274;12.292;2022-08-19T00:20:16;19.40;99.90
1800;DHT22;919;48.274;12.292;2022-08-19T00:22:43;19.40;99.90
1800;DHT22;919;48.274;12.292;2022-08-19T00:25:11;19.40;99.90
1800;DHT22;919;48.274;12.292;2022-08-19T00:27:38;19.40;99.90
1800;DHT22;919;48.274;12.292;2022-08-19T00:30:06;19.40;99.90
1800;DHT22;919;48.274;12.292;2022-08-19T00:32:35;19.40;99.90
1800;DHT22;919;48.274;12.292;2022-08-19T00:35:04;19.50;99.90
1800;DHT22;919;48.274;12.292;2022-08-19T00:37:31;19.50;99.90
1800;DHT22;919;48.274;12.292;2022-08-19T00:40:00;19.50;99.90
1800;DHT22;919;48.274;12.292;2022-08-19T00:42:28;19.50;99.90
1800;DHT22;919;48.274;12.292;2022-08-19T00:44:54;19.50;99.90
1800;DHT22;919;48.274;12.292;2022-08-19T00:47:21;19.50;99.90
1800;DHT22;919;48.274;12.292;2022-08-19T00:49:50;19.60;99.90
1800;DHT22;919;48.274;12.292;2022-08-19T00:52:22;19.50;99.90
1800;DHT22;919;48.274;12.292;2022-08-19T00:54:51;19.50;99.90
1800;DHT22;919;48.274;12.292;2022-08-19T00:57:22;19.50;99.90
1800;DHT22;919;48.274;12.292;2022-08-19T00:59:52;19.50;99.90
1800;DHT22;919;48.274;12.292;2022-08-19T01:02:20;19.60;99.90
1800;DHT22;919;48.274;12.292;2022-08-19T01:04:47;19.60;99.90
1800;DHT22;919;48.274;12.292;2022-08-19T01:07:14;19.50;99.90
1800;DHT22;919;48.274;12.292;2022-08-19T01:09:42;19.50;99.90
1800;DHT22;919;48.274;12.292;2022-08-19T01:12:09;19.60;99.90
1800;DHT22;919;48.274;12.292;2022-08-19T01:14:37;19.50;99.90
1800;DHT22;919;48.274;12.292;2022-08-19T01:17:05;19.60;99.90
1800;DHT22;919;48.274;12.292;2022-08-19T01:19:37;19.60;99.90
1800;DHT22;919;48.274;12.292;2022-08-19T01:22:08;19.60;99.90
1800;DHT22;919;48.274;12.292;2022-08-19T01:24:39;19.60;99.90
1800;DHT22;919;48.274;12.292;2022-08-19T01:27:07;19.60;99.90
1800;DHT22;919;48.274;12.292;2022-08-19T01:29:37;19.50;99.90
1800;DHT22;919;48.274;12.292;2022-08-19T01:32:05;19.50;99.90
1800;DHT22;919;48.274;12.292;2022-08-19T01:34:31;19.50;99.90
1800;DHT22;919;48.274;12.292;2022-08-19T01:36:59;19.50;99.90
1800;DHT22;919;48.274;12.292;2022-08-19T01:39:27;19.50;99.90
1800;DHT22;919;48.274;12.292;2022-08-19T01:41:55;19.50;99.90
1800;DHT22;919;48.274;12.292;2022-08-19T01:44:22;19.50;99.90
1800;DHT22;919;48.274;12.292;2022-08-19T01:46:51;19.50;99.90
1800;DHT22;919;48.274;12.292;2022-08-19T01:49:21;19.50;99.90
1800;DHT22;919;48.274;12.292;2022-08-19T01:51:49;19.60;99.90
1800;DHT22;919;48.274;12.292;2022-08-19T01:54:18;19.50;99.90
1800;DHT22;919;48.274;12.292;2022-08-19T01:56:45;19.50;99.90
1800;DHT22;919;48.274;12.292;2022-08-19T01:59:15;19.50;99.90
1800;DHT22;919;48.274;12.292;2022-08-19T02:01:43;19.50;99.90
1800;DHT22;919;48.274;12.292;2022-08-19T02:04:10;19.50;99.90
1800;DHT22;919;48.274;12.292;2022-08-19T02:06:37;19.60;99.90
1800;DHT22;919;48.274;12.292;2022-08-19T02:09:06;19.50;99.90
1800;DHT22;919;48.274;12.292;2022-08-19T02:11:35;19.60;99.90
1800;DHT22;919;48.274;12.292;2022-08-19T02:14:05;19.50;99.90
1800;DHT22;919;48.274;12.292;2022-08-19T02:16:35;19.50;99.90
1800;DHT22;919;48.274;12.292;2022-08-19T02:19:02;19.50;99.90
1800;DHT22;919;48.274;12.292;2022-08-19T02:21:29;19.50;99.90
1800;DHT22;919;48.274;12.292;2022-08-19T02:23:57;19.50;99.90
1800;DHT22;919;48.274;12.292;2022-08-19T02:26:25;19.50;99.90
1800;DHT22;919;48.274;12.292;2022-08-19T02:28:53;19.50;99.90
1800;DHT22;919;48.274;12.292;2022-08-19T02:31:22;19.50;99.90
1800;DHT22;919;48.274;12.292;2022-08-19T02:33:50;19.40;99.90
1800;DHT22;919;48.274;12.292;2022-08-19T02:36:18;19.40;99.90
1800;DHT22;919;48.274;12.292;2022-08-19T02:38:45;19.40;99.90
1800;DHT22;919;48.274;12.292;2022-08-19T02:41:15;19.50;99.90
1800;DHT22;919;48.274;12.292;2022-08-19T02:43:42;19.40;99.90
1800;DHT22;919;48.274;12.292;2022-08-19T02:46:14;19.50;99.90
1800;DHT22;919;48.274;12.292;2022-08-19T02:48:41;19.40;99.90
1800;DHT22;919;48.274;12.292;2022-08-19T02:51:15;19.40;99.90
1800;DHT22;919;48.274;12.292;2022-08-19T02:53:42;19.40;99.90
1800;DHT22;919;48.274;12.292;2022-08-19T02:56:10;19.40;99.90
1800;DHT22;919;48.274;12.292;2022-08-19T02:58:37;19.40;99.90
1800;DHT22;919;48.274;12.292;2022-08-19T03:01:04;19.40;99.90
1800;DHT22;919;48.274;12.292;2022-08-19T03:03:31;19.40;99.90
1800;DHT22;919;48.274;12.292;2022-08-19T03:06:06;19.40;99.90
1800;DHT22;919;48.274;12.292;2022-08-19T03:08:35;19.40;99.90
1800;DHT22;919;48.274;12.292;2022-08-19T03:11:02;19.50;99.90
1800;DHT22;919;48.274;12.292;2022-08-19T03:13:28;19.40;99.90
1800;DHT22;919;48.274;12.292;2022-08-19T03:15:55;19.40;99.90
1800;DHT22;919;48.274;12.292;2022-08-19T03:18:22;19.40;99.90
1800;DHT22;919;48.274;12.292;2022-08-19T03:20:52;19.40;99.90
1800;DHT22;919;48.274;12.292;2022-08-19T03:23:20;19.40;99.90
1800;DHT22;919;48.274;12.292;2022-08-19T03:25:50;19.40;99.90
1800;DHT22;919;48.274;12.292;2022-08-19T03:28:18;19.40;99.90
1800;DHT22;919;48.274;12.292;2022-08-19T03:30:55;19.40;99.90
1800;DHT22;919;48.274;12.292;2022-08-19T03:33:23;19.40;99.90
1800;DHT22;919;48.274;12.292;2022-08-19T03:36:03;19.40;99.90
1800;DHT22;919;48.274;12.292;2022-08-19T03:38:31;19.40;99.90
1800;DHT22;919;48.274;12.292;2022-08-19T03:41:02;19.40;99.90
1800;DHT22;919;48.274;12.292;2022-08-19T03:43:32;19.40;99.90
1800;DHT22;919;48.274;12.292;2022-08-19T03:46:01;19.40;99.90
1800;DHT22;919;48.274;12.292;2022-08-19T03:48:30;19.40;99.90
1800;DHT22;919;48.274;12.292;2022-08-19T03:50:57;19.40;99.90
1800;DHT22;919;48.274;12.292;2022-08-19T03:53:24;19.50;99.90
1800;DHT22;919;48.274;12.292;2022-08-19T03:55:52;19.50;99.90
1800;DHT22;919;48.274;12.292;2022-08-19T03:58:21;19.40;99.90
1800;DHT22;919;48.274;12.292;2022-08-19T04:00:47;19.50;99.90
1800;DHT22;919;48.274;12.292;2022-08-19T04:03:14;19.50;99.90
1800;DHT22;919;48.274;12.292;2022-08-19T04:05:44;19.40;99.90
1800;DHT22;919;48.274;12.292;2022-08-19T04:08:12;19.50;99.90
1800;DHT22;919;48.274;12.292;2022-08-19T04:10:38;19.50;99.90
1800;DHT22;919;48.274;12.292;2022-08-19T04:13:06;19.50;99.90
1800;DHT22;919;48.274;12.292;2022-08-19T04:15:39;19.50;99.90
1800;DHT22;919;48.274;12.292;2022-08-19T04:18:07;19.50;99.90
1800;DHT22;919;48.274;12.292;2022-08-19T04:20:39;19.50;99.90
1800;DHT22;919;48.274;12.292;2022-08-19T04:23:06;19.50;99.90
1800;DHT22;919;48.274;12.292;2022-08-19T04:25:36;19.50;99.90
1800;DHT22;919;48.274;12.292;2022-08-19T04:28:04;19.50;99.90
1800;DHT22;919;48.274;12.292;2022-08-19T04:30:37;19.50;99.90
1800;DHT22;919;48.274;12.292;2022-08-19T04:33:04;19.40;99.90
1800;DHT22;919;48.274;12.292;2022-08-19T04:35:35;19.50;99.90
1800;DHT22;919;48.274;12.292;2022-08-19T04:38:03;19.40;99.90
1800;DHT22;919;48.274;12.292;2022-08-19T04:40:29;19.50;99.90
1800;DHT22;919;48.274;12.292;2022-08-19T04:43:13;19.60;99.90
1800;DHT22;919;48.274;12.292;2022-08-19T04:45:42;19.50;99.90
1800;DHT22;919;48.274;12.292;2022-08-19T04:48:09;19.60;99.90
1800;DHT22;919;48.274;12.292;2022-08-19T04:50:36;19.60;99.90
1800;DHT22;919;48.274;12.292;2022-08-19T04:53:05;19.60;99.90
1800;DHT22;919;48.274;12.292;2022-08-19T04:55:32;19.60;99.90
1800;DHT22;919;48.274;12.292;2022-08-19T04:58:01;19.60;99.90
1800;DHT22;919;48.274;12.292;2022-08-19T05:00:28;19.60;99.90
1800;DHT22;919;48.274;12.292;2022-08-19T05:02:56;19.60;99.90
1800;DHT22;919;48.274;12.292;2022-08-19T05:05:23;19.60;99.90
1800;DHT22;919;48.274;12.292;2022-08-19T05:07:49;19.60;99.90
1800;DHT22;919;48.274;12.292;2022-08-19T05:10:16;19.60;99.90
1800;DHT22;919;48.274;12.292;2022-08-19T05:12:43;19.60;99.90
1800;DHT22;919;48.274;12.292;2022-08-19T05:15:10;19.60;99.90
1800;DHT22;919;48.274;12.292;2022-08-19T05:17:37;19.60;99.90
1800;DHT22;919;48.274;12.292;2022-08-19T05:20:25;19.50;99.90
1800;DHT22;919;48.274;12.292;2022-08-19T05:23:10;19.50;99.90
1800;DHT22;919;48.274;12.292;2022-08-19T05:25:41;19.50;99.90
1800;DHT22;919;48.274;12.292;2022-08-19T05:28:08;19.50;99.90
1800;DHT22;919;48.274;12.292;2022-08-19T05:30:34;19.50;99.90
1800;DHT22;919;48.274;12.292;2022-08-19T05:33:01;19.50;99.90
1800;DHT22;919;48.274;12.292;2022-08-19T05:35:29;19.50;99.90
1800;DHT22;919;48.274;12.292;2022-08-19T05:37:56;19.60;99.90
1800;DHT22;919;48.274;12.292;2022-08-19T05:40:23;19.50;99.90
1800;DHT22;919;48.274;12.292;2022-08-19T05:42:49;19.50;99.90
1800;DHT22;919;48.274;12.292;2022-08-19T05:45:17;19.60;99.90
1800;DHT22;919;48.274;12.292;2022-08-19T05:47:44;19.60;99.90
1800;DHT22;919;48.274;12.292;2022-08-19T05:50:11;19.50;99.90
1800;DHT22;919;48.274;12.292;2022-08-19T05:52:39;19.60;99.90
1800;DHT22;919;48.274;12.292;2022-08-19T05:55:07;19.60;99.90
1800;DHT22;919;48.274;12.292;2022-08-19T05:57:33;19.60;99.90
1800;DHT22;919;48.274;12.292;2022-08-19T06:00:00;19.60;99.90
1800;DHT22;919;48.274;12.292;2022-08-19T06:02:27;19.60;99.90
1800;DHT22;919;48.274;12.292;2022-08-19T06:04:56;19.60;99.90
1800;DHT22;919;48.274;12.292;2022-08-19T06:07:22;19.60;99.90
1800;DHT22;919;48.274;12.292;2022-08-19T06:09:50;19.60;99.90
1800;DHT22;919;48.274;12.292;2022-08-19T06:12:17;19.60;99.90
1800;DHT22;919;48.274;12.292;2022-08-19T06:14:44;19.60;99.90
1800;DHT22;919;48.274;12.292;2022-08-19T06:17:10;19.60;99.90
1800;DHT22;919;48.274;12.292;2022-08-19T06:19:37;19.70;99.90
1800;DHT22;919;48.274;12.292;2022-08-19T06:22:06;19.60;99.90
1800;DHT22;919;48.274;12.292;2022-08-19T06:24:34;19.60;99.90
1800;DHT22;919;48.274;12.292;2022-08-19T06:27:03;19.70;99.90
1800;DHT22;919;48.274;12.292;2022-08-19T06:29:31;19.70;99.90
1800;DHT22;919;48.274;12.292;2022-08-19T06:32:00;19.70;99.90
1800;DHT22;919;48.274;12.292;2022-08-19T06:34:29;19.70;99.90
1800;DHT22;919;48.274;12.292;2022-08-19T06:36:57;19.70;99.90
1800;DHT22;919;48.274;12.292;2022-08-19T06:39:28;19.70;99.90
1800;DHT22;919;48.274;12.292;2022-08-19T06:41:57;19.70;99.90
1800;DHT22;919;48.274;12.292;2022-08-19T06:44:28;19.70;99.90
1800;DHT22;919;48.274;12.292;2022-08-19T06:46:55;19.70;99.90
1800;DHT22;919;48.274;12.292;2022-08-19T06:49:22;19.70;99.90
1800;DHT22;919;48.274;12.292;2022-08-19T06:51:49;19.70;99.90
1800;DHT22;919;48.274;12.292;2022-08-19T06:54:17;19.80;99.90
1800;DHT22;919;48.274;12.292;2022-08-19T06:56:44;19.80;99.90
1800;DHT22;919;48.274;12.292;2022-08-19T06:59:13;19.80;99.90
1800;DHT22;919;48.274;12.292;2022-08-19T07:01:44;19.80;99.90
1800;DHT22;919;48.274;12.292;2022-08-19T07:04:13;19.80;99.90
1800;DHT22;919;48.274;12.292;2022-08-19T07:06:41;19.90;99.90
1800;DHT22;919;48.274;12.292;2022-08-19T07:09:09;19.90;99.90
1800;DHT22;919;48.274;12.292;2022-08-19T07:11:36;20.10;99.90
1800;DHT22;919;48.274;12.292;2022-08-19T07:14:03;20.10;99.90
1800;DHT22;919;48.274;12.292;2022-08-19T07:16:31;20.20;99.90
1800;DHT22;919;48.274;12.292;2022-08-19T07:18:59;20.20;99.90
1800;DHT22;919;48.274;12.292;2022-08-19T07:21:27;20.30;99.90
1800;DHT22;919;48.274;12.292;2022-08-19T07:23:55;20.30;99.90
1800;DHT22;919;48.274;12.292;2022-08-19T07:26:24;20.30;99.90
1800;DHT22;919;48.274;12.292;2022-08-19T07:28:52;20.30;99.90
1800;DHT22;919;48.274;12.292;2022-08-19T07:31:22;20.40;99.90
1800;DHT22;919;48.274;12.292;2022-08-19T07:33:51;20.50;99.90
1800;DHT22;919;48.274;12.292;2022-08-19T07:36:23;20.60;99.90
1800;DHT22;919;48.274;12.292;2022-08-19T07:38:51;20.60;99.90
1800;DHT22;919;48.274;12.292;2022-08-19T07:41:20;20.70;99.90
1800;DHT22;919;48.274;12.292;2022-08-19T07:43:48;20.80;99.90
1800;DHT22;919;48.274;12.292;2022-08-19T07:46:17;20.90;99.90
1800;DHT22;919;48.274;12.292;2022-08-19T07:48:46;21.00;99.90
1800;DHT22;919;48.274;12.292;2022-08-19T07:51:14;21.10;99.90
1800;DHT22;919;48.274;12.292;2022-08-19T07:53:43;21.30;99.90
1800;DHT22;919;48.274;12.292;2022-08-19T07:56:12;21.40;99.90
1800;DHT22;919;48.274;12.292;2022-08-19T07:58:41;21.50;99.90
1800;DHT22;919;48.274;12.292;2022-08-19T08:01:12;21.40;99.90
1800;DHT22;919;48.274;12.292;2022-08-19T08:03:39;21.50;99.90
1800;DHT22;919;48.274;12.292;2022-08-19T08:06:23;21.60;99.90
1800;DHT22;919;48.274;12.292;2022-08-19T08:09:11;21.70;99.90
1800;DHT22;919;48.274;12.292;2022-08-19T08:11:43;21.90;99.90
1800;DHT22;919;48.274;12.292;2022-08-19T08:14:17;22.10;99.90
1800;DHT22;919;48.274;12.292;2022-08-19T08:16:44;22.30;99.90
1800;DHT22;919;48.274;12.292;2022-08-19T08:19:12;22.40;99.90
1800;DHT22;919;48.274;12.292;2022-08-19T08:21:41;22.40;99.90
1800;DHT22;919;48.274;12.292;2022-08-19T08:24:10;22.50;99.90
1800;DHT22;919;48.274;12.292;2022-08-19T08:26:37;22.50;99.90
1800;DHT22;919;48.274;12.292;2022-08-19T08:29:04;22.40;99.90
1800;DHT22;919;48.274;12.292;2022-08-19T08:31:33;22.20;99.90
1800;DHT22;919;48.274;12.292;2022-08-19T08:34:00;22.00;99.90
1800;DHT22;919;48.274;12.292;2022-08-19T08:36:27;21.90;99.90
1800;DHT22;919;48.274;12.292;2022-08-19T08:38:54;21.70;99.90
1800;DHT22;919;48.274;12.292;2022-08-19T08:41:28;21.60;99.90
1800;DHT22;919;48.274;12.292;2022-08-19T08:43:58;21.60;99.90
1800;DHT22;919;48.274;12.292;2022-08-19T08:46:28;21.50;99.90
1800;DHT22;919;48.274;12.292;2022-08-19T08:49:01;21.40;99.90
1800;DHT22;919;48.274;12.292;2022-08-19T08:51:33;21.30;99.90
1800;DHT22;919;48.274;12.292;2022-08-19T08:54:02;21.20;99.90
1800;DHT22;919;48.274;12.292;2022-08-19T08:56:33;21.10;99.90
1800;DHT22;919;48.274;12.292;2022-08-19T08:59:03;21.10;99.90
1800;DHT22;919;48.274;12.292;2022-08-19T09:01:32;21.00;99.90
1800;DHT22;919;48.274;12.292;2022-08-19T09:03:59;21.00;99.90
1800;DHT22;919;48.274;12.292;2022-08-19T09:06:31;20.90;99.90
1800;DHT22;919;48.274;12.292;2022-08-19T09:09:04;20.70;99.90
1800;DHT22;919;48.274;12.292;2022-08-19T09:11:42;20.70;99.90
1800;DHT22;919;48.274;12.292;2022-08-19T09:14:20;20.70;99.90
1800;DHT22;919;48.274;12.292;2022-08-19T09:16:49;20.70;99.90
1800;DHT22;919;48.274;12.292;2022-08-19T09:19:17;20.60;99.90
1800;DHT22;919;48.274;12.292;2022-08-19T09:21:44;20.50;99.90
1800;DHT22;919;48.274;12.292;2022-08-19T09:24:11;20.50;99.90
1800;DHT22;919;48.274;12.292;2022-08-19T09:26:40;20.40;99.90
1800;DHT22;919;48.274;12.292;2022-08-19T09:29:09;20.40;99.90
1800;DHT22;919;48.274;12.292;2022-08-19T09:31:36;20.40;99.90
1800;DHT22;919;48.274;12.292;2022-08-19T09:34:03;20.40;99.90
1800;DHT22;919;48.274;12.292;2022-08-19T09:36:30;20.40;99.90
1800;DHT22;919;48.274;12.292;2022-08-19T09:38:59;20.30;99.90
1800;DHT22;919;48.274;12.292;2022-08-19T09:41:27;20.30;99.90
1800;DHT22;919;48.274;12.292;2022-08-19T09:43:56;20.20;99.90
1800;DHT22;919;48.274;12.292;2022-08-19T09:46:25;20.20;99.90
1800;DHT22;919;48.274;12.292;2022-08-19T09:48:52;20.20;99.90
1800;DHT22;919;48.274;12.292;2022-08-19T09:51:21;20.20;99.90
1800;DHT22;919;48.274;12.292;2022-08-19T09:53:49;20.30;99.90
1800;DHT22;919;48.274;12.292;2022-08-19T09:56:18;20.30;99.90
1800;DHT22;919;48.274;12.292;2022-08-19T09:58:45;20.30;99.90
1800;DHT22;919;48.274;12.292;2022-08-19T10:01:17;20.30;99.90
1800;DHT22;919;48.274;12.292;2022-08-19T10:03:47;20.30;99.90
1800;DHT22;919;48.274;12.292;2022-08-19T10:06:14;20.30;99.90
1800;DHT22;919;48.274;12.292;2022-08-19T10:08:41;20.30;99.90
1800;DHT22;919;48.274;12.292;2022-08-19T10:11:09;20.30;99.90
1800;DHT22;919;48.274;12.292;2022-08-19T10:13:36;20.50;99.90
1800;DHT22;919;48.274;12.292;2022-08-19T10:16:06;20.60;99.90
1800;DHT22;919;48.274;12.292;2022-08-19T10:18:36;20.80;99.90
1800;DHT22;919;48.274;12.292;2022-08-19T10:21:06;21.00;99.90
1800;DHT22;919;48.274;12.292;2022-08-19T10:23:35;21.10;99.90
1800;DHT22;919;48.274;12.292;2022-08-19T10:26:03;21.20;99.90
1800;DHT22;919;48.274;12.292;2022-08-19T10:28:32;21.30;99.90
1800;DHT22;919;48.274;12.292;2022-08-19T10:31:03;21.30;99.90
1800;DHT22;919;48.274;12.292;2022-08-19T10:33:32;21.30;99.90
1800;DHT22;919;48.274;12.292;2022-08-19T10:36:01;21.40;99.90
1800;DHT22;919;48.274;12.292;2022-08-19T10:38:28;21.30;99.90
1800;DHT22;919;48.274;12.292;2022-08-19T10:40:55;21.30;99.90
1800;DHT22;919;48.274;12.292;2022-08-19T10:43:22;21.40;99.90
1800;DHT22;919;48.274;12.292;2022-08-19T10:45:52;21.50;99.90
1800;DHT22;919;48.274;12.292;2022-08-19T10:48:20;21.50;99.90
1800;DHT22;919;48.274;12.292;2022-08-19T10:50:47;21.70;99.90
1800;DHT22;919;48.274;12.292;2022-08-19T10:53:32;22.00;99.90
1800;DHT22;919;48.274;12.292;2022-08-19T10:55:59;22.20;99.90
1800;DHT22;919;48.274;12.292;2022-08-19T10:58:43;22.20;99.90
1800;DHT22;919;48.274;12.292;2022-08-19T11:01:10;22.10;99.90
1800;DHT22;919;48.274;12.292;2022-08-19T11:03:37;22.00;99.90
1800;DHT22;919;48.274;12.292;2022-08-19T11:06:06;21.80;99.90
1800;DHT22;919;48.274;12.292;2022-08-19T11:08:35;21.80;99.90
1800;DHT22;919;48.274;12.292;2022-08-19T11:11:04;21.90;99.90
1800;DHT22;919;48.274;12.292;2022-08-19T11:13:33;22.10;99.90
1800;DHT22;919;48.274;12.292;2022-08-19T11:16:05;22.30;99.90
1800;DHT22;919;48.274;12.292;2022-08-19T11:18:34;22.50;99.90
1800;DHT22;919;48.274;12.292;2022-08-19T11:21:09;22.70;99.90
1800;DHT22;919;48.274;12.292;2022-08-19T11:23:38;23.00;99.90
1800;DHT22;919;48.274;12.292;2022-08-19T11:26:05;23.10;99.90
1800;DHT22;919;48.274;12.292;2022-08-19T11:28:32;23.30;99.90
1800;DHT22;919;48.274;12.292;2022-08-19T11:30:58;23.50;99.90
1800;DHT22;919;48.274;12.292;2022-08-19T11:33:25;23.80;99.90
1800;DHT22;919;48.274;12.292;2022-08-19T11:35:52;24.20;99.90
1800;DHT22;919;48.274;12.292;2022-08-19T11:38:19;24.40;99.90
1800;DHT22;919;48.274;12.292;2022-08-19T11:40:55;24.90;99.90
1800;DHT22;919;48.274;12.292;2022-08-19T11:43:22;25.20;99.90
1800;DHT22;919;48.274;12.292;2022-08-19T11:45:49;25.30;99.90
1800;DHT22;919;48.274;12.292;2022-08-19T11:48:16;25.10;99.90
1800;DHT22;919;48.274;12.292;2022-08-19T11:50:47;24.80;99.90
1800;DHT22;919;48.274;12.292;2022-08-19T11:53:14;24.80;99.90
1800;DHT22;919;48.274;12.292;2022-08-19T11:55:41;24.90;99.90
1800;DHT22;919;48.274;12.292;2022-08-19T11:58:09;25.00;99.90
1800;DHT22;919;48.274;12.292;2022-08-19T12:00:37;25.20;99.90
1800;DHT22;919;48.274;12.292;2022-08-19T12:03:04;25.60;99.90
1800;DHT22;919;48.274;12.292;2022-08-19T12:05:30;25.80;99.90
1800;DHT22;919;48.274;12.292;2022-08-19T12:07:57;25.80;99.90
1800;DHT22;919;48.274;12.292;2022-08-19T12:10:24;25.60;99.90
1800;DHT22;919;48.274;12.292;2022-08-19T12:12:51;25.40;99.90
1800;DHT22;919;48.274;12.292;2022-08-19T12:15:19;25.30;99.90
1800;DHT22;919;48.274;12.292;2022-08-19T12:17:46;25.40;99.90
1800;DHT22;919;48.274;12.292;2022-08-19T12:20:13;25.60;99.90
1800;DHT22;919;48.274;12.292;2022-08-19T12:22:42;25.60;99.90
1800;DHT22;919;48.274;12.292;2022-08-19T12:25:10;25.50;99.90
1800;DHT22;919;48.274;12.292;2022-08-19T12:27:37;25.40;99.90
1800;DHT22;919;48.274;12.292;2022-08-19T12:30:06;25.60;99.90
1800;DHT22;919;48.274;12.292;2022-08-19T12:32:34;25.60;99.90
1800;DHT22;919;48.274;12.292;2022-08-19T12:35:01;25.50;99.90
1800;DHT22;919;48.274;12.292;2022-08-19T12:37:28;25.30;99.90
1800;DHT22;919;48.274;12.292;2022-08-19T12:39:55;25.30;99.90
1800;DHT22;919;48.274;12.292;2022-08-19T12:42:22;25.20;99.90
1800;DHT22;919;48.274;12.292;2022-08-19T12:44:49;25.10;99.90
1800;DHT22;919;48.274;12.292;2022-08-19T12:47:17;25.10;99.90
1800;DHT22;919;48.274;12.292;2022-08-19T12:49:45;25.10;99.90
1800;DHT22;919;48.274;12.292;2022-08-19T12:52:12;25.10;99.90
1800;DHT22;919;48.274;12.292;2022-08-19T12:54:41;24.90;99.90
1800;DHT22;919;48.274;12.292;2022-08-19T12:57:10;24.60;99.90
1800;DHT22;919;48.274;12.292;2022-08-19T12:59:37;24.50;99.90
1800;DHT22;919;48.274;12.292;2022-08-19T13:02:04;24.60;99.90
1800;DHT22;919;48.274;12.292;2022-08-19T13:04:32;24.60;99.90
1800;DHT22;919;48.274;12.292;2022-08-19T13:07:03;24.50;99.90
1800;DHT22;919;48.274;12.292;2022-08-19T13:09:30;24.50;99.90
1800;DHT22;919;48.274;12.292;2022-08-19T13:11:56;24.60;99.90
1800;DHT22;919;48.274;12.292;2022-08-19T13:14:23;24.80;99.90
1800;DHT22;919;48.274;12.292;2022-08-19T13:16:50;25.10;99.90
1800;DHT22;919;48.274;12.292;2022-08-19T13:19:17;25.10;99.90
1800;DHT22;919;48.274;12.292;2022-08-19T13:21:49;25.10;99.90
1800;DHT22;919;48.274;12.292;2022-08-19T13:24:17;25.20;99.90
1800;DHT22;919;48.274;12.292;2022-08-19T13:26:44;25.20;99.90
1800;DHT22;919;48.274;12.292;2022-08-19T13:29:11;25.20;99.90
1800;DHT22;919;48.274;12.292;2022-08-19T13:31:55;25.30;99.90
1800;DHT22;919;48.274;12.292;2022-08-19T13:34:39;25.60;99.90
1800;DHT22;919;48.274;12.292;2022-08-19T13:37:06;26.00;99.90
1800;DHT22;919;48.274;12.292;2022-08-19T13:39:35;26.30;99.90
1800;DHT22;919;48.274;12.292;2022-08-19T13:42:02;26.30;99.90
1800;DHT22;919;48.274;12.292;2022-08-19T13:44:30;26.30;99.90
1800;DHT22;919;48.274;12.292;2022-08-19T13:47:00;26.10;99.90
1800;DHT22;919;48.274;12.292;2022-08-19T13:49:31;26.10;99.90
1800;DHT22;919;48.274;12.292;2022-08-19T13:51:58;25.80;99.90
1800;DHT22;919;48.274;12.292;2022-08-19T13:54:25;25.60;99.90
1800;DHT22;919;48.274;12.292;2022-08-19T13:56:53;25.50;99.90
1800;DHT22;919;48.274;12.292;2022-08-19T13:59:20;25.50;99.90
1800;DHT22;919;48.274;12.292;2022-08-19T14:01:47;25.50;99.90
1800;DHT22;919;48.274;12.292;2022-08-19T14:04:14;25.50;99.90
1800;DHT22;919;48.274;12.292;2022-08-19T14:06:40;25.40;99.90
1800;DHT22;919;48.274;12.292;2022-08-19T14:09:07;25.40;99.90
1800;DHT22;919;48.274;12.292;2022-08-19T14:11:34;25.60;99.90
1800;DHT22;919;48.274;12.292;2022-08-19T14:14:02;25.70;99.90
1800;DHT22;919;48.274;12.292;2022-08-19T14:16:29;25.80;99.90
1800;DHT22;919;48.274;12.292;2022-08-19T14:18:56;25.60;99.90
1800;DHT22;919;48.274;12.292;2022-08-19T14:21:24;25.30;99.90
1800;DHT22;919;48.274;12.292;2022-08-19T14:23:52;25.30;99.90
1800;DHT22;919;48.274;12.292;2022-08-19T14:26:20;25.20;99.90
1800;DHT22;919;48.274;12.292;2022-08-19T14:28:47;25.10;99.90
1800;DHT22;919;48.274;12.292;2022-08-19T14:31:17;25.20;99.90
1800;DHT22;919;48.274;12.292;2022-08-19T14:33:45;25.20;99.90
1800;DHT22;919;48.274;12.292;2022-08-19T14:36:12;25.20;99.90
1800;DHT22;919;48.274;12.292;2022-08-19T14:38:39;25.20;99.90
1800;DHT22;919;48.274;12.292;2022-08-19T14:41:08;25.00;99.90
1800;DHT22;919;48.274;12.292;2022-08-19T14:43:35;24.90;99.90
1800;DHT22;919;48.274;12.292;2022-08-19T14:46:03;24.80;99.90
1800;DHT22;919;48.274;12.292;2022-08-19T14:48:31;24.60;99.90
1800;DHT22;919;48.274;12.292;2022-08-19T14:50:58;24.60;99.90
1800;DHT22;919;48.274;12.292;2022-08-19T14:53:25;24.50;99.90
1800;DHT22;919;48.274;12.292;2022-08-19T14:55:52;24.50;99.90
1800;DHT22;919;48.274;12.292;2022-08-19T14:58:18;24.60;99.90
1800;DHT22;919;48.274;12.292;2022-08-19T15:00:45;24.70;99.90
1800;DHT22;919;48.274;12.292;2022-08-19T15:03:12;25.00;99.90
1800;DHT22;919;48.274;12.292;2022-08-19T15:05:40;25.20;99.90
1800;DHT22;919;48.274;12.292;2022-08-19T15:08:07;25.10;99.90
1800;DHT22;919;48.274;12.292;2022-08-19T15:10:34;25.20;99.90
1800;DHT22;919;48.274;12.292;2022-08-19T15:13:01;25.30;99.90
1800;DHT22;919;48.274;12.292;2022-08-19T15:15:27;25.10;99.90
1800;DHT22;919;48.274;12.292;2022-08-19T15:17:54;25.20;99.90
1800;DHT22;919;48.274;12.292;2022-08-19T15:20:27;25.10;99.90
1800;DHT22;919;48.274;12.292;2022-08-19T15:22:56;25.00;99.90
1800;DHT22;919;48.274;12.292;2022-08-19T15:25:24;24.90;99.90
1800;DHT22;919;48.274;12.292;2022-08-19T15:27:51;24.80;99.90
1800;DHT22;919;48.274;12.292;2022-08-19T15:30:22;24.60;99.90
1800;DHT22;919;48.274;12.292;2022-08-19T15:32:50;24.50;99.90
1800;DHT22;919;48.274;12.292;2022-08-19T15:35:18;24.40;99.90
1800;DHT22;919;48.274;12.292;2022-08-19T15:37:48;24.20;99.90
1800;DHT22;919;48.274;12.292;2022-08-19T15:40:17;24.00;99.90
1800;DHT22;919;48.274;12.292;2022-08-19T15:42:45;23.70;99.90
1800;DHT22;919;48.274;12.292;2022-08-19T15:45:13;23.70;99.90
1800;DHT22;919;48.274;12.292;2022-08-19T15:47:40;23.40;99.90
1800;DHT22;919;48.274;12.292;2022-08-19T15:50:09;23.30;99.90
1800;DHT22;919;48.274;12.292;2022-08-19T15:52:36;23.20;99.90
1800;DHT22;919;48.274;12.292;2022-08-19T15:55:05;23.10;99.90
1800;DHT22;919;48.274;12.292;2022-08-19T15:57:34;23.00;99.90
1800;DHT22;919;48.274;12.292;2022-08-19T16:00:18;22.90;99.90
1800;DHT22;919;48.274;12.292;2022-08-19T16:03:02;22.80;99.90
1800;DHT22;919;48.274;12.292;2022-08-19T16:06:01;22.80;99.90
1800;DHT22;919;48.274;12.292;2022-08-19T16:08:45;22.70;99.90
1800;DHT22;919;48.274;12.292;2022-08-19T16:11:16;22.70;99.90